createdAt,value
2022-10-11T00:00:43.878Z,14.63
2022-10-11T00:03:11.836Z,12.80
2022-10-11T00:05:39.768Z,20.70
2022-10-11T00:08:07.931Z,14.83
2022-10-11T00:10:37.276Z,10.97
2022-10-11T00:13:06.044Z,12.90
2022-10-11T00:15:34.404Z,12.93
2022-10-11T00:18:05.367Z,12.57
2022-10-11T00:20:33.655Z,14.60
2022-10-11T00:23:01.597Z,15.90
2022-10-11T00:25:29.628Z,14.47
2022-10-11T00:27:58.938Z,17.03
2022-10-11T00:30:26.870Z,12.23
2022-10-11T00:32:54.787Z,14.73
2022-10-11T00:35:22.744Z,12.97
2022-10-11T00:37:50.702Z,14.70
2022-10-11T00:40:20.964Z,14.97
2022-10-11T00:42:48.986Z,16.07
2022-10-11T00:46:02.909Z,13.93
2022-10-11T00:48:37.422Z,13.97
2022-10-11T00:51:09.755Z,12.67
2022-10-11T00:53:37.923Z,14.40
2022-10-11T00:56:10.888Z,14.07
2022-10-11T00:58:40.019Z,13.30
2022-10-11T01:01:09.574Z,12.37
2022-10-11T01:03:40.083Z,13.97
2022-10-11T01:06:10.182Z,14.13
2022-10-11T01:08:39.666Z,10.60
2022-10-11T01:11:07.973Z,12.70
2022-10-11T01:13:47.373Z,13.20
2022-10-11T01:16:22.468Z,13.17
2022-10-11T01:19:01.636Z,12.27
2022-10-11T01:21:37.695Z,10.17
2022-10-11T01:24:33.946Z,10.60
2022-10-11T01:27:31.636Z,10.47
2022-10-11T01:30:08.682Z,10.20
2022-10-11T01:32:44.741Z,11.23
2022-10-11T01:35:21.720Z,13.10
2022-10-11T01:37:56.677Z,10.63
2022-10-11T01:40:29.555Z,10.40
2022-10-11T01:42:58.755Z,11.80
2022-10-11T01:45:26.945Z,12.23
2022-10-11T01:48:06.028Z,10.87
2022-10-11T01:50:39.456Z,10.63
2022-10-11T01:53:32.204Z,10.93
2022-10-11T01:56:10.703Z,8.33
2022-10-11T01:58:53.128Z,9.97
2022-10-11T02:01:28.531Z,11.27
2022-10-11T02:04:05.937Z,12.87
2022-10-11T02:06:36.762Z,8.30
2022-10-11T02:09:14.573Z,7.70
2022-10-11T02:11:43.277Z,11.47
2022-10-11T02:14:14.199Z,9.90
2022-10-11T02:16:47.230Z,8.33
2022-10-11T02:19:20.103Z,8.03
2022-10-11T02:21:53.587Z,13.73
2022-10-11T02:24:27.245Z,9.63
2022-10-11T02:26:57.930Z,10.37
2022-10-11T02:29:29.764Z,12.37
2022-10-11T02:32:00.643Z,9.97
2022-10-11T02:34:34.593Z,8.77
2022-10-11T02:37:09.870Z,10.40
2022-10-11T02:39:44.002Z,9.43
2022-10-11T02:42:18.456Z,19.47
2022-10-11T02:44:59.624Z,10.53
2022-10-11T02:47:28.012Z,10.40
2022-10-11T02:49:57.535Z,7.33
2022-10-11T02:52:25.737Z,11.40
2022-10-11T02:54:53.687Z,12.90
2022-10-11T02:57:21.620Z,10.20
2022-10-11T02:59:49.564Z,10.27
2022-10-11T03:02:17.489Z,8.77
2022-10-11T03:04:45.582Z,9.37
2022-10-11T03:07:15.043Z,10.10
2022-10-11T03:09:43.138Z,7.27
2022-10-11T03:12:11.128Z,9.93
2022-10-11T03:14:39.064Z,10.17
2022-10-11T03:17:31.113Z,10.47
2022-10-11T03:19:55.467Z,12.00
2022-10-11T03:22:24.844Z,9.33
2022-10-11T03:24:52.783Z,10.53
2022-10-11T03:27:20.865Z,9.70
2022-10-11T03:29:48.798Z,9.60
2022-10-11T03:32:16.766Z,8.37
2022-10-11T03:34:44.715Z,10.90
2022-10-11T03:37:12.643Z,9.57
2022-10-11T03:39:41.963Z,8.90
2022-10-11T03:42:09.888Z,10.40
2022-10-11T03:44:38.763Z,9.77
2022-10-11T03:47:06.888Z,9.87
2022-10-11T03:49:37.652Z,8.47
2022-10-11T03:52:07.903Z,9.97
2022-10-11T03:54:35.888Z,12.93
2022-10-11T03:57:05.472Z,12.87
2022-10-11T03:59:33.451Z,10.30
2022-10-11T04:02:01.563Z,8.73
2022-10-11T04:04:29.649Z,10.87
2022-10-11T04:06:57.598Z,14.00
2022-10-11T04:09:25.527Z,10.50
2022-10-11T04:11:53.447Z,11.53
2022-10-11T04:14:22.778Z,18.83
2022-10-11T04:16:50.745Z,8.13
2022-10-11T04:19:18.691Z,11.87
2022-10-11T04:21:46.659Z,12.13
2022-10-11T04:24:14.621Z,13.97
2022-10-11T04:26:42.551Z,11.97
2022-10-11T04:29:10.592Z,14.73
2022-10-11T04:31:39.892Z,12.93
2022-10-11T04:34:07.904Z,16.47
2022-10-11T04:36:35.839Z,11.63
2022-10-11T04:39:03.790Z,10.63
2022-10-11T04:41:31.766Z,11.13
2022-10-11T04:43:59.759Z,12.47
2022-10-11T04:46:28.235Z,11.70
2022-10-11T04:48:57.936Z,11.07
2022-10-11T04:51:26.177Z,12.40
2022-10-11T04:53:54.114Z,12.57
2022-10-11T04:56:22.064Z,11.87
2022-10-11T04:58:54.006Z,12.50
2022-10-11T05:01:22.525Z,10.67
2022-10-11T05:03:50.901Z,11.17
2022-10-11T05:06:20.547Z,16.00
2022-10-11T05:08:48.534Z,10.17
2022-10-11T05:11:17.660Z,11.83
2022-10-11T05:13:46.587Z,15.20
2022-10-11T05:16:15.639Z,12.83
2022-10-11T05:18:43.939Z,12.00
2022-10-11T05:21:18.479Z,13.90
2022-10-11T05:23:49.012Z,10.20
2022-10-11T05:26:17.798Z,16.47
2022-10-11T05:28:45.999Z,10.47
2022-10-11T05:31:14.143Z,13.20
2022-10-11T05:33:42.418Z,13.30
2022-10-11T05:36:10.810Z,11.50
2022-10-11T05:38:39.555Z,15.10
2022-10-11T05:41:10.147Z,14.37
2022-10-11T05:43:38.111Z,11.03
2022-10-11T05:46:06.817Z,16.47
2022-10-11T05:48:35.166Z,14.50
2022-10-11T05:51:05.167Z,12.83
2022-10-11T05:53:33.482Z,18.93
2022-10-11T05:56:02.068Z,16.93
2022-10-11T05:58:31.587Z,18.20
2022-10-11T06:00:59.600Z,19.40
2022-10-11T06:03:28.129Z,16.13
2022-10-11T06:06:03.206Z,17.17
2022-10-11T06:08:32.039Z,16.83
2022-10-11T06:10:59.976Z,13.60
2022-10-11T06:13:27.949Z,15.47
2022-10-11T06:15:57.262Z,15.17
2022-10-11T06:18:25.184Z,14.63
2022-10-11T06:20:53.150Z,17.77
2022-10-11T06:23:21.124Z,12.15
2022-10-11T06:25:57.508Z,14.30
2022-10-11T06:28:26.618Z,14.87
2022-10-11T06:30:54.608Z,19.43
2022-10-11T06:33:24.296Z,16.07
2022-10-11T06:35:58.381Z,19.73
2022-10-11T06:38:26.784Z,17.45
2022-10-11T06:40:55.319Z,22.13
2022-10-11T06:43:23.853Z,32.30
2022-10-11T06:45:51.782Z,16.13
2022-10-11T06:48:19.775Z,23.60
2022-10-11T06:50:59.523Z,19.93
2022-10-11T06:53:28.758Z,21.07
2022-10-11T06:56:03.493Z,21.87
2022-10-11T06:58:31.886Z,24.13
2022-10-11T07:01:03.772Z,22.97
2022-10-11T07:03:31.811Z,26.23
2022-10-11T07:06:03.238Z,25.03
2022-10-11T07:08:31.722Z,30.23
2022-10-11T07:11:04.952Z,24.35
2022-10-11T07:13:33.034Z,28.57
2022-10-11T07:16:02.430Z,27.48
2022-10-11T07:18:30.946Z,23.30
2022-10-11T07:20:59.147Z,19.67
2022-10-11T07:23:28.626Z,15.45
2022-10-11T07:25:56.590Z,16.60
2022-10-11T07:28:25.010Z,19.80
2022-10-11T07:30:53.057Z,23.58
2022-10-11T07:33:21.186Z,24.50
2022-10-11T07:35:50.189Z,21.38
2022-10-11T07:38:18.391Z,23.05
2022-10-11T07:40:47.925Z,22.75
2022-10-11T07:43:16.069Z,22.83
2022-10-11T07:45:48.361Z,22.50
2022-10-11T07:48:47.441Z,20.00
2022-10-11T07:51:17.476Z,21.80
2022-10-11T07:53:47.551Z,22.10
2022-10-11T07:56:19.702Z,21.58
2022-10-11T07:58:52.198Z,23.33
2022-10-11T08:01:21.289Z,19.80
2022-10-11T08:03:50.195Z,19.50
2022-10-11T08:06:20.091Z,20.25
2022-10-11T08:08:48.798Z,22.40
2022-10-11T08:11:25.656Z,21.13
2022-10-11T08:13:53.835Z,18.95
2022-10-11T08:16:22.217Z,18.60
2022-10-11T08:18:50.560Z,20.65
2022-10-11T08:21:19.565Z,22.88
2022-10-11T08:23:47.576Z,21.50
2022-10-11T08:26:15.979Z,21.33
2022-10-11T08:28:45.439Z,22.92
2022-10-11T08:31:15.554Z,21.55
2022-10-11T08:33:44.408Z,22.70
2022-10-11T08:36:13.486Z,21.63
2022-10-11T08:38:42.030Z,23.35
2022-10-11T08:41:27.593Z,28.20
2022-10-11T08:44:11.866Z,24.20
2022-10-11T08:46:43.287Z,29.33
2022-10-11T08:49:14.572Z,22.73
2022-10-11T08:51:46.794Z,20.90
2022-10-11T08:54:21.709Z,21.02
2022-10-11T08:56:50.801Z,21.48
2022-10-11T08:59:31.682Z,22.40
2022-10-11T09:02:05.752Z,25.45
2022-10-11T09:04:33.925Z,21.50
2022-10-11T09:07:08.495Z,22.83
2022-10-11T09:09:57.294Z,20.40
2022-10-11T09:12:40.655Z,20.88
2022-10-11T09:15:28.281Z,21.73
2022-10-11T09:18:21.495Z,20.73
2022-10-11T09:21:00.222Z,21.80
2022-10-11T09:23:46.307Z,19.75
2022-10-11T09:26:20.907Z,22.85
2022-10-11T09:29:01.455Z,28.38
2022-10-11T09:31:31.549Z,21.30
2022-10-11T09:34:07.096Z,22.13
2022-10-11T09:36:42.563Z,30.08
2022-10-11T09:39:25.357Z,21.70
2022-10-11T09:41:57.826Z,23.27
2022-10-11T09:44:27.984Z,27.60
2022-10-11T09:46:58.491Z,27.52
2022-10-11T09:49:32.174Z,24.27
2022-10-11T09:52:03.500Z,25.85
2022-10-11T09:54:42.798Z,25.45
2022-10-11T09:57:24.062Z,20.73
2022-10-11T10:00:05.354Z,24.00
2022-10-11T10:02:42.384Z,22.90
2022-10-11T10:05:20.059Z,23.20
2022-10-11T10:08:23.032Z,17.17
2022-10-11T10:11:00.970Z,20.45
2022-10-11T10:13:35.488Z,23.40
2022-10-11T10:16:04.306Z,21.02
2022-10-11T10:18:38.476Z,22.90
2022-10-11T10:21:11.961Z,23.98
2022-10-11T10:23:40.253Z,24.17
2022-10-11T10:26:17.300Z,18.10
2022-10-11T10:29:00.928Z,16.55
2022-10-11T10:31:54.961Z,17.48
2022-10-11T10:34:29.520Z,18.23
2022-10-11T10:37:01.474Z,16.55
2022-10-11T10:39:35.057Z,17.48
2022-10-11T10:42:06.114Z,18.45
2022-10-11T10:44:34.151Z,22.23
2022-10-11T10:47:10.921Z,16.83
2022-10-11T10:49:54.119Z,18.98
2022-10-11T10:52:53.226Z,17.58
2022-10-11T10:55:28.788Z,43.70
2022-10-11T10:58:09.596Z,18.98
2022-10-11T11:00:44.330Z,15.98
2022-10-11T11:03:18.834Z,14.70
2022-10-11T11:05:56.241Z,15.38
2022-10-11T11:08:39.714Z,12.65
2022-10-11T11:11:20.244Z,13.52
2022-10-11T11:13:56.569Z,16.05
2022-10-11T11:16:33.377Z,14.20
2022-10-11T11:19:14.537Z,11.98
2022-10-11T11:21:54.280Z,12.52
2022-10-11T11:24:36.107Z,14.13
2022-10-11T11:27:11.425Z,12.50
2022-10-11T11:29:53.108Z,14.65
2022-10-11T11:32:34.043Z,12.55
2022-10-11T11:35:04.558Z,16.45
2022-10-11T11:37:36.306Z,13.18
2022-10-11T11:40:08.863Z,10.40
2022-10-11T11:42:42.822Z,11.02
2022-10-11T11:45:19.738Z,13.93
2022-10-11T11:47:55.391Z,10.77
2022-10-11T11:50:25.193Z,17.83
2022-10-11T11:52:57.355Z,10.98
2022-10-11T11:55:32.521Z,14.00
2022-10-11T11:58:12.622Z,11.38
2022-10-11T12:00:47.733Z,14.90
2022-10-11T12:03:21.380Z,17.00
2022-10-11T12:06:21.889Z,13.52
2022-10-11T12:09:01.873Z,14.00
2022-10-11T12:11:39.581Z,16.02
2022-10-11T12:14:27.386Z,9.38
2022-10-11T12:17:13.643Z,9.85
2022-10-11T12:19:44.251Z,10.30
2022-10-11T12:22:36.673Z,10.88
2022-10-11T12:25:33.215Z,12.23
2022-10-11T12:28:22.231Z,14.52
2022-10-11T12:30:54.513Z,10.98
2022-10-11T12:33:24.675Z,14.10
2022-10-11T12:36:08.195Z,13.32
2022-10-11T12:38:39.755Z,11.23
2022-10-11T12:41:50.365Z,10.93
2022-10-11T12:44:24.081Z,10.55
2022-10-11T12:47:21.094Z,14.27
2022-10-11T12:49:58.549Z,11.57
2022-10-11T12:52:35.040Z,10.30
2022-10-11T12:55:35.609Z,12.27
2022-10-11T12:58:28.322Z,12.10
2022-10-11T13:01:31.742Z,7.65
2022-10-11T13:04:04.147Z,8.73
2022-10-11T13:06:36.360Z,8.43
2022-10-11T13:09:08.112Z,8.68
2022-10-11T13:11:39.868Z,8.60
2022-10-11T13:14:11.765Z,7.65
2022-10-11T13:16:56.791Z,9.40
2022-10-11T13:19:25.522Z,7.32
2022-10-11T13:21:56.478Z,7.78
2022-10-11T13:24:25.503Z,8.05
2022-10-11T13:26:56.337Z,11.73
2022-10-11T13:29:32.473Z,9.38
2022-10-11T13:32:01.790Z,9.75
2022-10-11T13:34:34.415Z,9.80
2022-10-11T13:37:03.493Z,7.78
2022-10-11T13:39:35.936Z,7.95
2022-10-11T13:42:07.177Z,11.70
2022-10-11T13:44:38.593Z,7.03
2022-10-11T13:47:06.992Z,9.75
2022-10-11T13:49:39.883Z,8.10
2022-10-11T13:52:22.049Z,9.20
2022-10-11T13:54:58.555Z,9.05
2022-10-11T13:57:36.698Z,11.18
2022-10-11T14:00:26.041Z,7.43
2022-10-11T14:02:57.803Z,10.73
2022-10-11T14:05:30.509Z,9.70
2022-10-11T14:08:01.827Z,9.93
2022-10-11T14:10:30.636Z,8.88
2022-10-11T14:13:04.859Z,8.90
2022-10-11T14:15:35.949Z,8.57
2022-10-11T14:18:33.676Z,7.82
2022-10-11T14:21:34.642Z,7.85
2022-10-11T14:24:05.053Z,6.38
2022-10-11T14:26:35.873Z,8.70
2022-10-11T14:29:07.871Z,9.60
2022-10-11T14:31:41.453Z,10.70
2022-10-11T14:34:14.774Z,7.28
2022-10-11T14:36:42.733Z,9.25
2022-10-11T14:39:14.654Z,12.50
2022-10-11T14:41:42.663Z,10.63
2022-10-11T14:44:10.675Z,12.35
2022-10-11T14:46:41.335Z,9.18
2022-10-11T14:49:14.684Z,8.40
2022-10-11T14:51:42.931Z,11.65
2022-10-11T14:54:11.381Z,8.85
2022-10-11T14:56:39.416Z,11.93
2022-10-11T14:59:07.783Z,11.60
2022-10-11T15:01:35.826Z,7.70
2022-10-11T15:04:05.256Z,9.95
2022-10-11T15:06:37.822Z,7.83
2022-10-11T15:09:06.519Z,7.18
2022-10-11T15:11:37.169Z,8.50
2022-10-11T15:14:05.691Z,5.57
2022-10-11T15:16:34.646Z,8.07
2022-10-11T15:19:04.147Z,8.97
2022-10-11T15:21:32.168Z,8.37
2022-10-11T15:24:00.217Z,9.00
2022-10-11T15:26:30.315Z,9.43
2022-10-11T15:28:58.762Z,11.43
2022-10-11T15:31:26.844Z,7.75
2022-10-11T15:33:59.344Z,8.37
2022-10-11T15:36:29.608Z,10.17
2022-10-11T15:38:57.621Z,10.80
2022-10-11T15:41:25.561Z,14.17
2022-10-11T15:43:53.532Z,11.57
2022-10-11T15:46:23.146Z,10.15
2022-10-11T15:48:52.511Z,16.25
2022-10-11T15:51:20.792Z,21.90
2022-10-11T15:53:50.136Z,15.30
2022-10-11T15:56:19.667Z,14.37
2022-10-11T15:58:47.840Z,15.60
2022-10-11T16:01:19.302Z,16.17
2022-10-11T16:03:48.491Z,14.10
2022-10-11T16:06:16.689Z,18.60
2022-10-11T16:08:44.723Z,16.60
2022-10-11T16:11:14.967Z,19.40
2022-10-11T16:13:43.039Z,17.57
2022-10-11T16:16:12.381Z,21.10
2022-10-11T16:18:40.390Z,17.37
2022-10-11T16:21:10.593Z,20.63
2022-10-11T16:23:39.127Z,21.83
2022-10-11T16:26:10.123Z,15.13
2022-10-11T16:28:39.883Z,21.53
2022-10-11T16:31:09.044Z,24.97
2022-10-11T16:33:45.718Z,28.67
2022-10-11T16:36:36.103Z,30.57
2022-10-11T16:39:08.220Z,64.77
2022-10-11T16:41:36.406Z,62.10
2022-10-11T16:44:05.922Z,45.17
2022-10-11T16:46:34.934Z,35.33
2022-10-11T16:49:02.911Z,34.77
2022-10-11T16:51:30.918Z,21.07
2022-10-11T16:53:58.930Z,18.97
2022-10-11T16:56:27.999Z,21.57
2022-10-11T16:58:56.641Z,20.70
2022-10-11T17:01:26.401Z,28.10
2022-10-11T17:03:55.699Z,25.43
2022-10-11T17:06:24.286Z,23.90
2022-10-11T17:08:52.330Z,25.03
2022-10-11T17:11:22.236Z,22.93
2022-10-11T17:13:53.234Z,19.67
2022-10-11T17:16:22.101Z,21.93
2022-10-11T17:18:51.484Z,22.90
2022-10-11T17:21:21.307Z,28.70
2022-10-11T17:23:50.208Z,27.87
2022-10-11T17:26:21.171Z,36.87
2022-10-11T17:28:49.154Z,31.60
2022-10-11T17:31:17.873Z,26.97
2022-10-11T17:33:45.861Z,25.47
2022-10-11T17:36:24.051Z,28.07
2022-10-11T17:38:52.898Z,24.50
2022-10-11T17:41:21.626Z,31.50
2022-10-11T17:43:49.666Z,29.50
2022-10-11T17:46:18.631Z,29.73
2022-10-11T17:48:46.562Z,28.47
2022-10-11T17:51:18.165Z,26.73
2022-10-11T17:53:48.039Z,25.90
2022-10-11T17:56:20.976Z,22.83
2022-10-11T17:58:53.535Z,32.47
2022-10-11T18:01:24.035Z,24.10
2022-10-11T18:03:53.865Z,30.50
2022-10-11T18:06:23.206Z,28.97
2022-10-11T18:08:51.454Z,24.33
2022-10-11T18:11:20.857Z,26.27
2022-10-11T18:13:50.349Z,25.57
2022-10-11T18:16:20.687Z,28.00
2022-10-11T18:18:49.094Z,30.50
2022-10-11T18:21:18.702Z,29.17
2022-10-11T18:23:48.179Z,35.67
2022-10-11T18:26:18.825Z,28.27
2022-10-11T18:28:47.883Z,31.03
2022-10-11T18:31:18.585Z,32.40
2022-10-11T18:33:47.275Z,34.50
2022-10-11T18:36:16.917Z,36.80
2022-10-11T18:38:49.162Z,35.23
2022-10-11T18:41:18.858Z,32.73
2022-10-11T18:43:50.891Z,33.10
2022-10-11T18:46:19.310Z,33.40
2022-10-11T18:48:49.574Z,43.30
2022-10-11T18:51:19.400Z,39.93
2022-10-11T18:53:49.450Z,44.53
2022-10-11T18:56:20.621Z,39.70
2022-10-11T18:58:49.737Z,38.63
2022-10-11T19:01:19.957Z,34.07
2022-10-11T19:03:52.361Z,33.57
2022-10-11T19:06:23.143Z,34.20
2022-10-11T19:08:54.383Z,36.57
2022-10-11T19:11:25.339Z,38.57
2022-10-11T19:13:56.793Z,39.73
2022-10-11T19:16:25.147Z,36.93
2022-10-11T19:18:53.721Z,42.67
2022-10-11T19:21:21.784Z,38.37
2022-10-11T19:23:50.604Z,36.57
2022-10-11T19:26:22.319Z,42.07
2022-10-11T19:28:56.169Z,37.80
2022-10-11T19:31:24.297Z,43.83
2022-10-11T19:33:52.343Z,34.03
2022-10-11T19:36:20.407Z,33.83
2022-10-11T19:38:50.259Z,35.30
2022-10-11T19:41:20.855Z,43.23
2022-10-11T19:43:48.879Z,40.37
2022-10-11T19:46:37.910Z,41.53
2022-10-11T19:49:08.273Z,51.57
2022-10-11T19:51:37.411Z,46.53
2022-10-11T19:54:08.422Z,48.73
2022-10-11T19:56:38.347Z,52.03
2022-10-11T19:59:07.351Z,49.80
2022-10-11T20:01:37.191Z,48.73
2022-10-11T20:04:07.040Z,52.07
2022-10-11T20:06:38.783Z,48.97
2022-10-11T20:09:28.612Z,47.73
2022-10-11T20:11:57.232Z,48.40
2022-10-11T20:14:25.333Z,43.93
2022-10-11T20:16:53.514Z,42.53
2022-10-11T20:19:27.694Z,46.90
2022-10-11T20:21:57.407Z,52.33
2022-10-11T20:24:27.463Z,50.10
2022-10-11T20:26:57.055Z,50.57
2022-10-11T20:29:25.289Z,47.50
2022-10-11T20:31:53.387Z,52.53
2022-10-11T20:34:21.361Z,56.80
2022-10-11T20:36:49.598Z,60.33
2022-10-11T20:39:17.943Z,72.33
2022-10-11T20:41:46.262Z,62.77
2022-10-11T20:44:16.201Z,64.47
2022-10-11T20:46:44.306Z,70.50
2022-10-11T20:49:14.735Z,73.70
2022-10-11T20:51:43.858Z,68.50
2022-10-11T20:54:12.411Z,61.90
2022-10-11T20:56:41.526Z,58.23
2022-10-11T20:59:10.087Z,68.67
2022-10-11T21:01:41.176Z,51.10
2022-10-11T21:04:15.347Z,53.43
2022-10-11T21:06:43.310Z,59.57
2022-10-11T21:09:14.077Z,54.40
2022-10-11T21:11:44.452Z,53.33
2022-10-11T21:14:12.402Z,51.13
2022-10-11T21:16:42.008Z,52.10
2022-10-11T21:19:15.255Z,56.00
2022-10-11T21:21:44.578Z,42.53
2022-10-11T21:24:13.687Z,52.60
2022-10-11T21:26:41.630Z,38.53
2022-10-11T21:29:09.566Z,35.73
2022-10-11T21:31:37.619Z,44.27
2022-10-11T21:34:07.470Z,40.50
2022-10-11T21:36:35.728Z,39.17
2022-10-11T21:39:03.914Z,37.80
2022-10-11T21:41:31.868Z,40.93
2022-10-11T21:43:59.920Z,36.77
2022-10-11T21:47:01.085Z,37.93
2022-10-11T21:49:19.889Z,33.77
2022-10-11T21:51:47.863Z,40.77
2022-10-11T21:54:16.082Z,36.40
2022-10-11T21:56:44.143Z,34.47
2022-10-11T21:59:12.887Z,33.90
2022-10-11T22:01:41.876Z,34.83
2022-10-11T22:04:10.518Z,35.63
2022-10-11T22:06:40.360Z,35.27
2022-10-11T22:09:09.246Z,34.93
2022-10-11T22:11:37.844Z,33.73
2022-10-11T22:14:06.386Z,31.70
2022-10-11T22:16:35.035Z,33.73
2022-10-11T22:19:03.109Z,33.57
2022-10-11T22:21:31.256Z,33.33
2022-10-11T22:24:00.569Z,31.87
2022-10-11T22:26:31.072Z,34.63
2022-10-11T22:28:59.346Z,31.37
2022-10-11T22:31:27.554Z,27.77
2022-10-11T22:33:56.187Z,33.63
2022-10-11T22:36:25.079Z,37.40
2022-10-11T22:38:54.147Z,31.67
2022-10-11T22:41:23.769Z,33.30
2022-10-11T22:43:51.893Z,32.17
2022-10-11T22:46:20.095Z,29.40
2022-10-11T22:48:48.019Z,28.77
2022-10-11T22:51:15.965Z,28.63
2022-10-11T22:53:43.936Z,29.10
2022-10-11T22:56:12.053Z,30.10
2022-10-11T22:58:41.342Z,26.70
2022-10-11T23:01:09.912Z,33.77
2022-10-11T23:03:38.108Z,33.27
2022-10-11T23:06:06.766Z,30.67
2022-10-11T23:08:34.703Z,30.27
2022-10-11T23:11:07.114Z,27.23
2022-10-11T23:13:35.693Z,33.83
2022-10-11T23:16:09.297Z,28.73
2022-10-11T23:18:37.849Z,29.00
2022-10-11T23:21:07.154Z,29.93
2022-10-11T23:23:35.435Z,28.57
2022-10-11T23:26:05.325Z,26.67
2022-10-11T23:28:33.711Z,26.60
2022-10-11T23:31:01.995Z,31.77
2022-10-11T23:33:31.304Z,28.13
2022-10-11T23:35:59.309Z,30.60
2022-10-11T23:38:27.304Z,33.20
2022-10-11T23:40:55.281Z,42.50
2022-10-11T23:43:23.403Z,36.50
2022-10-11T23:45:51.384Z,37.10
2022-10-11T23:48:19.308Z,42.37
2022-10-11T23:50:48.635Z,42.20
2022-10-11T23:53:16.614Z,43.67
2022-10-11T23:55:44.734Z,51.57
2022-10-11T23:58:12.697Z,50.17
